地図

経路データ

SID SEASON NUMBER BASIN SUBBASIN NAME ISO_TIME NATURE LAT LON WMO_WIND WMO_PRES WMO_AGENCY TRACK_TYPE DIST2LAND LANDFALL IFLAG USA_AGENCY USA_ATCF_ID USA_LAT USA_LON USA_RECORD USA_STATUS USA_WIND USA_PRES USA_SSHS USA_R34_NE USA_R34_SE USA_R34_SW USA_R34_NW USA_R50_NE USA_R50_SE USA_R50_SW USA_R50_NW USA_R64_NE USA_R64_SE USA_R64_SW USA_R64_NW USA_POCI USA_ROCI USA_RMW USA_EYE TOKYO_LAT TOKYO_LON TOKYO_GRADE TOKYO_WIND TOKYO_PRES TOKYO_R50_DIR TOKYO_R50_LONG TOKYO_R50_SHORT TOKYO_R30_DIR TOKYO_R30_LONG TOKYO_R30_SHORT TOKYO_LAND CMA_LAT CMA_LON CMA_CAT CMA_WIND CMA_PRES HKO_LAT HKO_LON HKO_CAT HKO_WIND HKO_PRES NEWDELHI_LAT NEWDELHI_LON NEWDELHI_GRADE NEWDELHI_WIND NEWDELHI_PRES NEWDELHI_CI NEWDELHI_DP NEWDELHI_POCI REUNION_LAT REUNION_LON REUNION_TYPE REUNION_WIND REUNION_PRES REUNION_TNUM REUNION_CI REUNION_RMW REUNION_R34_NE REUNION_R34_SE REUNION_R34_SW REUNION_R34_NW REUNION_R50_NE REUNION_R50_SE REUNION_R50_SW REUNION_R50_NW REUNION_R64_NE REUNION_R64_SE REUNION_R64_SW REUNION_R64_NW BOM_LAT BOM_LON BOM_TYPE BOM_WIND BOM_PRES BOM_TNUM BOM_CI BOM_RMW BOM_R34_NE BOM_R34_SE BOM_R34_SW BOM_R34_NW BOM_R50_NE BOM_R50_SE BOM_R50_SW BOM_R50_NW BOM_R64_NE BOM_R64_SE BOM_R64_SW BOM_R64_NW BOM_ROCI BOM_POCI BOM_EYE BOM_POS_METHOD BOM_PRES_METHOD NADI_LAT NADI_LON NADI_CAT NADI_WIND NADI_PRES WELLINGTON_LAT WELLINGTON_LON WELLINGTON_WIND WELLINGTON_PRES DS824_LAT DS824_LON DS824_STAGE DS824_WIND DS824_PRES TD9636_LAT TD9636_LON TD9636_STAGE TD9636_WIND TD9636_PRES TD9635_LAT TD9635_LON TD9635_WIND TD9635_PRES TD9635_ROCI NEUMANN_LAT NEUMANN_LON NEUMANN_CLASS NEUMANN_WIND NEUMANN_PRES MLC_LAT MLC_LON MLC_CLASS MLC_WIND MLC_PRES USA_GUST BOM_GUST BOM_GUST_PER REUNION_GUST REUNION_GUST_PER USA_SEAHGT USA_SEARAD_NE USA_SEARAD_SE USA_SEARAD_SW USA_SEARAD_NW STORM_SPEED STORM_DIR
1965247N36306 1965 88 NA NA NOT_NAMED 1965-09-04 00:00:00 ET 36.0000 -54.5000 25 hurdat_atl main 1163 1163 O_____________ hurdat_atl AL071965 36.0000 -54.5000 EX 25 -4 6 82
1965247N36306 1965 88 NA NA NOT_NAMED 1965-09-04 03:00:00 ET 36.0403 -54.1375 main 1179 1168 P_____________ AL071965 36.0403 -54.1375 EX 25 -4 6 80
1965247N36306 1965 88 NA NA NOT_NAMED 1965-09-04 06:00:00 ET 36.1000 -53.8000 25 hurdat_atl main 1168 1156 O_____________ hurdat_atl AL071965 36.1000 -53.8000 EX 25 -4 5 74
1965247N36306 1965 88 NA NA NOT_NAMED 1965-09-04 09:00:00 ET 36.1923 -53.5000 main 1156 1145 P_____________ AL071965 36.1923 -53.5000 EX 27 -4 5 68
1965247N36306 1965 88 NA NA NOT_NAMED 1965-09-04 12:00:00 ET 36.3000 -53.2000 30 hurdat_atl main 1145 1134 O_____________ hurdat_atl AL071965 36.3000 -53.2000 EX 30 -4 5 68
1965247N36306 1965 88 NA NA NOT_NAMED 1965-09-04 15:00:00 ET 36.3998 -52.8724 main 1134 1124 P_____________ AL071965 36.3998 -52.8724 EX 30 -4 6 70
1965247N36306 1965 88 NA NA NOT_NAMED 1965-09-04 18:00:00 ET 36.5000 -52.5000 30 hurdat_atl main 1125 1114 O_____________ hurdat_atl AL071965 36.5000 -52.5000 EX 30 -4 7 73
1965247N36306 1965 88 NA NA NOT_NAMED 1965-09-04 21:00:00 ET 36.5925 -52.0648 main 1116 1107 P_____________ AL071965 36.5925 -52.0648 EX 32 -4 7 75
1965247N36306 1965 88 NA NA NOT_NAMED 1965-09-05 00:00:00 ET 36.7000 -51.6000 35 hurdat_atl main 1109 1100 O_____________ hurdat_atl AL071965 36.7000 -51.6000 EX 35 -4 8 72
1965247N36306 1965 88 NA NA NOT_NAMED 1965-09-05 03:00:00 ET 36.8275 -51.1348 main 1103 1085 P_____________ AL071965 36.8275 -51.1348 EX 35 -4 8 67
1965247N36306 1965 88 NA NA NOT_NAMED 1965-09-05 06:00:00 ET 37.0000 -50.7000 35 hurdat_atl main 1087 1070 O_____________ hurdat_atl AL071965 37.0000 -50.7000 EX 35 -4 8 61
1965247N36306 1965 88 NA NA NOT_NAMED 1965-09-05 09:00:00 ET 37.2350 -50.2309 main 1074 1045 P_____________ AL071965 37.2350 -50.2309 EX 35 -4 7 48
1965247N36306 1965 88 NA NA NOT_NAMED 1965-09-05 12:00:00 ET 37.5000 -50.0000 35 hurdat_atl main 1045 1019 O_____________ hurdat_atl AL071965 37.5000 -50.0000 EX 35 -4 5 0
1965247N36306 1965 88 NA NA NOT_NAMED 1965-09-05 15:00:00 ET 37.7496 -50.1997 main 1019 978 P_____________ AL071965 37.7496 -50.1997 EX 35 -4 7 312
1965247N36306 1965 88 NA NA NOT_NAMED 1965-09-05 18:00:00 ET 38.0000 -50.7000 35 hurdat_atl main 978 948 O_____________ hurdat_atl AL071965 38.0000 -50.7000 EX 35 -4 10 301
1965247N36306 1965 88 NA NA NOT_NAMED 1965-09-05 21:00:00 ET 38.2567 -51.2528 main 935 906 P_____________ AL071965 38.2567 -51.2528 EX 35 -4 11 296
1965247N36306 1965 88 NA NA NOT_NAMED 1965-09-06 00:00:00 ET 38.5000 -52.0000 35 hurdat_atl main 906 878 O_____________ hurdat_atl AL071965 38.5000 -52.0000 EX 35 -4 14 289
1965247N36306 1965 88 NA NA NOT_NAMED 1965-09-06 03:00:00 ET 38.7228 -52.9473 main 878 856 P_____________ AL071965 38.7228 -52.9473 EX 35 -4 16 284
1965247N36306 1965 88 NA NA NOT_NAMED 1965-09-06 06:00:00 ET 38.9000 -54.0000 35 hurdat_atl main 856 847 O_____________ hurdat_atl AL071965 38.9000 -54.0000 EX 35 -4 17 280
1965247N36306 1965 88 NA NA NOT_NAMED 1965-09-06 09:00:00 ET 39.0152 -55.0457 main 852 797 P_____________ AL071965 39.0152 -55.0457 EX 37 -4 16 277
1965247N36306 1965 88 NA NA NOT_NAMED 1965-09-06 12:00:00 ET 39.1000 -56.0000 40 hurdat_atl main 797 758 O_____________ hurdat_atl AL071965 39.1000 -56.0000 EX 40 -4 13 278
1965247N36306 1965 88 NA NA NOT_NAMED 1965-09-06 15:00:00 ET 39.1988 -56.7528 main 754 722 P_____________ AL071965 39.1988 -56.7528 EX 42 -4 11 280
1965247N36306 1965 88 NA NA NOT_NAMED 1965-09-06 18:00:00 ET 39.3000 -57.4000 45 hurdat_atl main 722 693 O_____________ hurdat_atl AL071965 39.3000 -57.4000 EX 45 -4 10 283
1965247N36306 1965 88 NA NA NOT_NAMED 1965-09-06 21:00:00 ET 39.4372 -58.0717 main 690 663 P_____________ AL071965 39.4372 -58.0717 EX 45 -4 10 281
1965247N36306 1965 88 NA NA NOT_NAMED 1965-09-07 00:00:00 ET 39.5000 -58.7000 45 hurdat_atl main 663 648 O_____________ hurdat_atl AL071965 39.5000 -58.7000 EX 45 -4 9 269
1965247N36306 1965 88 NA NA NOT_NAMED 1965-09-07 03:00:00 ET 39.4174 -59.3029 main 655 648 P_____________ AL071965 39.4174 -59.3029 EX 45 -4 9 251
1965247N36306 1965 88 NA NA NOT_NAMED 1965-09-07 06:00:00 ET 39.2000 -59.8000 45 hurdat_atl main 657 653 O_____________ hurdat_atl AL071965 39.2000 -59.8000 EX 45 -4 8 232
1965247N36306 1965 88 NA NA NOT_NAMED 1965-09-07 09:00:00 ET 38.9022 -60.1599 main 665 665 P_____________ AL071965 38.9022 -60.1599 EX 45 -4 8 214
1965247N36306 1965 88 NA NA NOT_NAMED 1965-09-07 12:00:00 TS 38.5000 -60.4000 45 hurdat_atl main 690 690 O_____________ hurdat_atl AL071965 38.5000 -60.4000 TS 45 0 10 201
1965247N36306 1965 88 NA NA NOT_NAMED 1965-09-07 15:00:00 TS 38.0074 -60.5874 main 727 727 P_____________ AL071965 38.0074 -60.5874 TS 47 0 10 193
1965247N36306 1965 88 NA NA NOT_NAMED 1965-09-07 18:00:00 TS 37.5000 -60.7000 50 hurdat_atl main 771 771 O_____________ hurdat_atl AL071965 37.5000 -60.7000 TS 50 0 10 191
1965247N36306 1965 88 NA NA NOT_NAMED 1965-09-07 21:00:00 TS 37.0548 -60.8253 main 807 807 P_____________ AL071965 37.0548 -60.8253 TS 50 0 8 186
1965247N36306 1965 88 NA NA NOT_NAMED 1965-09-08 00:00:00 TS 36.7000 -60.8000 50 991 hurdat_atl main 847 847 O_____________ hurdat_atl AL071965 36.7000 -60.8000 TS 50 991 0 7 161
1965247N36306 1965 88 NA NA NOT_NAMED 1965-09-08 03:00:00 TS 36.3874 -60.5384 main 888 888 P_____________ AL071965 36.3874 -60.5384 TS 50 0 7 125
1965247N36306 1965 88 NA NA NOT_NAMED 1965-09-08 06:00:00 TS 36.3000 -60.1000 50 hurdat_atl main 914 912 O_____________ hurdat_atl AL071965 36.3000 -60.1000 TS 50 0 8 77
1965247N36306 1965 88 NA NA NOT_NAMED 1965-09-08 09:00:00 TS 36.5600 -59.5884 main 907 892 P_____________ AL071965 36.5600 -59.5884 TS 50 0 11 52
1965247N36306 1965 88 NA NA NOT_NAMED 1965-09-08 12:00:00 TS 37.0000 -59.0000 50 hurdat_atl main 897 891 O_____________ hurdat_atl AL071965 37.0000 -59.0000 TS 50 0 12 49
1965247N36306 1965 88 NA NA NOT_NAMED 1965-09-08 15:00:00 TS 37.3622 -58.4137 main 891 867 P_____________ AL071965 37.3622 -58.4137 TS 50 0 12 50
1965247N36306 1965 88 NA NA NOT_NAMED 1965-09-08 18:00:00 TS 37.8000 -57.8000 50 hurdat_atl main 867 829 O_____________ hurdat_atl AL071965 37.8000 -57.8000 TS 50 0 14 44
1965247N36306 1965 88 NA NA NOT_NAMED 1965-09-08 21:00:00 TS 38.3773 -57.1575 main 821 786 P_____________ AL071965 38.3773 -57.1575 TS 47 0 16 40
1965247N36306 1965 88 NA NA NOT_NAMED 1965-09-09 00:00:00 TS 39.0000 -56.5000 45 hurdat_atl main 786 763 O_____________ hurdat_atl AL071965 39.0000 -56.5000 TS 45 0 16 41
1965247N36306 1965 88 NA NA NOT_NAMED 1965-09-09 03:00:00 TS 39.5574 -55.8341 main 758 734 P_____________ AL071965 39.5574 -55.8341 TS 42 0 15 42
1965247N36306 1965 88 NA NA NOT_NAMED 1965-09-09 06:00:00 TS 40.1000 -55.2000 40 hurdat_atl main 734 672 O_____________ hurdat_atl AL071965 40.1000 -55.2000 TS 40 0 14 39
1965247N36306 1965 88 NA NA NOT_NAMED 1965-09-09 09:00:00 TS 40.6720 -54.6343 main 660 601 P_____________ AL071965 40.6720 -54.6343 TS 40 0 14 37
1965247N36306 1965 88 NA NA NOT_NAMED 1965-09-09 12:00:00 TS 41.2000 -54.1000 40 hurdat_atl main 601 555 O_____________ hurdat_atl AL071965 41.2000 -54.1000 TS 40 0 13 40
1965247N36306 1965 88 NA NA NOT_NAMED 1965-09-09 15:00:00 TS 41.6598 -53.5423 main 544 511 P_____________ AL071965 41.6598 -53.5423 TS 40 0 11 46
1965247N36306 1965 88 NA NA NOT_NAMED 1965-09-09 18:00:00 TS 42.0000 -53.0000 40 hurdat_atl main 511 491 O_____________ hurdat_atl AL071965 42.0000 -53.0000 TS 40 0 9 55
1965247N36306 1965 88 NA NA NOT_NAMED 1965-09-09 21:00:00 TS 42.1946 -52.4989 main 492 483 P_____________ AL071965 42.1946 -52.4989 TS 40 0 8 68
1965247N36306 1965 88 NA NA NOT_NAMED 1965-09-10 00:00:00 ET 42.3000 -52.0000 40 hurdat_atl main 487 481 O_____________ hurdat_atl AL071965 42.3000 -52.0000 EX 40 -4 8 74
1965247N36306 1965 88 NA NA NOT_NAMED 1965-09-10 03:00:00 ET 42.4070 -51.4796 main 485 482 P_____________ AL071965 42.4070 -51.4796 EX 40 -4 8 76
1965247N36306 1965 88 NA NA NOT_NAMED 1965-09-10 06:00:00 ET 42.5000 -50.9000 40 hurdat_atl main 490 490 O_____________ hurdat_atl AL071965 42.5000 -50.9000 EX 40 -4 9 79
1965247N36306 1965 88 NA NA NOT_NAMED 1965-09-10 09:00:00 ET 42.5923 -50.2296 main 503 503 P_____________ AL071965 42.5923 -50.2296 EX 40 -4 10 79
1965247N36306 1965 88 NA NA NOT_NAMED 1965-09-10 12:00:00 ET 42.7000 -49.5000 40 hurdat_atl main 522 522 O_____________ hurdat_atl AL071965 42.7000 -49.5000 EX 40 -4 11 79
1965247N36306 1965 88 NA NA NOT_NAMED 1965-09-10 15:00:00 ET 42.7889 -48.7922 main 546 546 P_____________ AL071965 42.7889 -48.7922 EX 40 -4 11 75
1965247N36306 1965 88 NA NA NOT_NAMED 1965-09-10 18:00:00 ET 43.0000 -48.0000 40 hurdat_atl main 571 569 O_____________ hurdat_atl AL071965 43.0000 -48.0000 EX 40 -4 14 64
1965247N36306 1965 88 NA NA NOT_NAMED 1965-09-10 21:00:00 ET 43.4091 -47.0730 main 595 594 P_____________ AL071965 43.4091 -47.0730 EX 40 -4 18 55
1965247N36306 1965 88 NA NA NOT_NAMED 1965-09-11 00:00:00 ET 44.0000 -46.0000 40 hurdat_atl main 626 626 O_____________ hurdat_atl AL071965 44.0000 -46.0000 EX 40 -4 21 51
1965247N36306 1965 88 NA NA NOT_NAMED 1965-09-11 03:00:00 ET 44.7274 -44.7887 main 674 674 P_____________ AL071965 44.7274 -44.7887 EX 40 -4 23 50
1965247N36306 1965 88 NA NA NOT_NAMED 1965-09-11 06:00:00 ET 45.5000 -43.5000 40 hurdat_atl main 727 727 O_____________ hurdat_atl AL071965 45.5000 -43.5000 EX 40 -4 23 51
1965247N36306 1965 88 NA NA NOT_NAMED 1965-09-11 09:00:00 ET 46.1844 -42.2406 main 800 800 P_____________ AL071965 46.1844 -42.2406 EX 40 -4 22 53
1965247N36306 1965 88 NA NA NOT_NAMED 1965-09-11 12:00:00 ET 46.8000 -41.0000 40 hurdat_atl main 876 O_____________ hurdat_atl AL071965 46.8000 -41.0000 EX 40 -4 21 54

IBTrACS Databaseについて

本データベースは、米国NOAAが公開する1842年以降の世界の熱帯低気圧のベストトラックデータアーカイブInternational Best Track Archive for Climate Stewardship (IBTrACS)を、ウェブで閲覧しやすい形式に変換したものです。

最終更新日:2021-12-03